sensor_id;sensor_type;location;lat;lon;timestamp;temperature;humidity
65072;DHT22;51663;52.310;17.016;2022-10-04T00:00:43;32.40;29.40
65072;DHT22;51663;52.310;17.016;2022-10-04T00:04:07;32.40;29.40
65072;DHT22;51663;52.310;17.016;2022-10-04T00:13:24;32.50;29.20
65072;DHT22;51663;52.310;17.016;2022-10-04T00:16:36;32.40;29.20
65072;DHT22;51663;52.310;17.016;2022-10-04T00:19:44;32.30;29.30
65072;DHT22;51663;52.310;17.016;2022-10-04T00:23:39;32.40;29.20
65072;DHT22;51663;52.310;17.016;2022-10-04T00:29:35;32.50;28.90
65072;DHT22;51663;52.310;17.016;2022-10-04T00:35:46;32.20;29.20
65072;DHT22;51663;52.310;17.016;2022-10-04T00:39:36;32.20;29.20
65072;DHT22;51663;52.310;17.016;2022-10-04T00:48:58;32.30;29.20
65072;DHT22;51663;52.310;17.016;2022-10-04T00:52:14;32.30;29.00
65072;DHT22;51663;52.310;17.016;2022-10-04T00:55:48;32.40;29.00
65072;DHT22;51663;52.310;17.016;2022-10-04T01:05:39;32.30;29.00
65072;DHT22;51663;52.310;17.016;2022-10-04T01:08:52;32.30;29.00
65072;DHT22;51663;52.310;17.016;2022-10-04T01:12:13;32.10;29.10
65072;DHT22;51663;52.310;17.016;2022-10-04T01:15:26;32.30;29.10
65072;DHT22;51663;52.310;17.016;2022-10-04T01:18:33;32.30;29.00
65072;DHT22;51663;52.310;17.016;2022-10-04T01:21:37;32.30;28.90
65072;DHT22;51663;52.310;17.016;2022-10-04T01:24:42;32.30;28.90
65072;DHT22;51663;52.310;17.016;2022-10-04T01:27:44;32.40;28.80
65072;DHT22;51663;52.310;17.016;2022-10-04T01:30:46;32.30;28.90
65072;DHT22;51663;52.310;17.016;2022-10-04T01:33:49;32.30;28.70
65072;DHT22;51663;52.310;17.016;2022-10-04T01:36:57;32.40;28.80
65072;DHT22;51663;52.310;17.016;2022-10-04T01:40:00;32.30;28.70
65072;DHT22;51663;52.310;17.016;2022-10-04T01:43:08;32.40;28.80
65072;DHT22;51663;52.310;17.016;2022-10-04T01:46:30;32.30;28.80
65072;DHT22;51663;52.310;17.016;2022-10-04T01:49:35;32.30;28.80
65072;DHT22;51663;52.310;17.016;2022-10-04T01:52:43;32.30;28.70
65072;DHT22;51663;52.310;17.016;2022-10-04T01:55:50;32.30;28.70
65072;DHT22;51663;52.310;17.016;2022-10-04T01:59:00;32.20;28.80
65072;DHT22;51663;52.310;17.016;2022-10-04T02:02:18;32.20;28.90
65072;DHT22;51663;52.310;17.016;2022-10-04T02:05:35;32.20;28.80
65072;DHT22;51663;52.310;17.016;2022-10-04T02:08:46;32.20;29.00
65072;DHT22;51663;52.310;17.016;2022-10-04T02:11:51;32.20;28.80
65072;DHT22;51663;52.310;17.016;2022-10-04T02:14:55;32.20;28.70
65072;DHT22;51663;52.310;17.016;2022-10-04T02:17:59;32.20;28.70
65072;DHT22;51663;52.310;17.016;2022-10-04T02:21:04;32.20;28.80
65072;DHT22;51663;52.310;17.016;2022-10-04T02:24:08;32.20;28.70
65072;DHT22;51663;52.310;17.016;2022-10-04T02:27:11;32.20;28.90
65072;DHT22;51663;52.310;17.016;2022-10-04T02:30:13;32.20;28.80
65072;DHT22;51663;52.310;17.016;2022-10-04T02:33:15;32.20;28.90
65072;DHT22;51663;52.310;17.016;2022-10-04T02:36:22;32.20;29.00
65072;DHT22;51663;52.310;17.016;2022-10-04T02:39:28;32.20;29.00
65072;DHT22;51663;52.310;17.016;2022-10-04T02:42:39;32.20;29.00
65072;DHT22;51663;52.310;17.016;2022-10-04T02:45:57;32.10;29.30
65072;DHT22;51663;52.310;17.016;2022-10-04T02:49:09;32.20;29.20
65072;DHT22;51663;52.310;17.016;2022-10-04T02:52:21;32.30;29.30
65072;DHT22;51663;52.310;17.016;2022-10-04T02:55:28;32.40;29.20
65072;DHT22;51663;52.310;17.016;2022-10-04T02:58:31;32.50;29.20
65072;DHT22;51663;52.310;17.016;2022-10-04T03:05:18;32.60;29.00
65072;DHT22;51663;52.310;17.016;2022-10-04T03:08:19;32.60;28.90
65072;DHT22;51663;52.310;17.016;2022-10-04T03:11:24;32.60;29.00
65072;DHT22;51663;52.310;17.016;2022-10-04T03:14:28;32.60;28.90
65072;DHT22;51663;52.310;17.016;2022-10-04T03:17:30;32.60;28.80
65072;DHT22;51663;52.310;17.016;2022-10-04T03:20:36;32.60;28.70
65072;DHT22;51663;52.310;17.016;2022-10-04T03:23:40;32.50;28.80
65072;DHT22;51663;52.310;17.016;2022-10-04T03:26:51;32.50;28.90
65072;DHT22;51663;52.310;17.016;2022-10-04T03:29:55;32.40;28.90
65072;DHT22;51663;52.310;17.016;2022-10-04T03:33:00;32.40;28.90
65072;DHT22;51663;52.310;17.016;2022-10-04T03:36:02;32.20;28.90
65072;DHT22;51663;52.310;17.016;2022-10-04T03:39:07;32.20;28.90
65072;DHT22;51663;52.310;17.016;2022-10-04T03:42:13;32.10;28.90
65072;DHT22;51663;52.310;17.016;2022-10-04T03:45:17;32.10;28.90
65072;DHT22;51663;52.310;17.016;2022-10-04T03:48:31;32.00;28.80
65072;DHT22;51663;52.310;17.016;2022-10-04T03:51:35;32.10;28.90
65072;DHT22;51663;52.310;17.016;2022-10-04T03:54:37;32.00;28.90
65072;DHT22;51663;52.310;17.016;2022-10-04T03:57:39;32.00;29.00
65072;DHT22;51663;52.310;17.016;2022-10-04T04:00:52;31.90;29.00
65072;DHT22;51663;52.310;17.016;2022-10-04T04:07:13;32.00;29.00
65072;DHT22;51663;52.310;17.016;2022-10-04T04:10:26;32.10;29.00
65072;DHT22;51663;52.310;17.016;2022-10-04T04:13:43;32.20;29.10
65072;DHT22;51663;52.310;17.016;2022-10-04T04:16:47;32.30;29.00
65072;DHT22;51663;52.310;17.016;2022-10-04T04:19:49;32.50;29.00
65072;DHT22;51663;52.310;17.016;2022-10-04T04:26:29;32.40;29.20
65072;DHT22;51663;52.310;17.016;2022-10-04T04:29:45;32.60;29.30
65072;DHT22;51663;52.310;17.016;2022-10-04T04:32:51;32.80;29.10
65072;DHT22;51663;52.310;17.016;2022-10-04T04:36:03;32.50;29.40
65072;DHT22;51663;52.310;17.016;2022-10-04T04:42:35;32.20;29.80
65072;DHT22;51663;52.310;17.016;2022-10-04T04:45:38;32.20;30.00
65072;DHT22;51663;52.310;17.016;2022-10-04T04:48:42;32.30;29.90
65072;DHT22;51663;52.310;17.016;2022-10-04T04:51:48;32.40;30.00
65072;DHT22;51663;52.310;17.016;2022-10-04T04:54:52;32.40;30.40
65072;DHT22;51663;52.310;17.016;2022-10-04T04:57:56;32.40;30.00
65072;DHT22;51663;52.310;17.016;2022-10-04T05:01:02;32.10;30.00
65072;DHT22;51663;52.310;17.016;2022-10-04T05:04:19;31.80;30.70
65072;DHT22;51663;52.310;17.016;2022-10-04T05:07:22;32.10;30.50
65072;DHT22;51663;52.310;17.016;2022-10-04T05:10:32;32.10;30.40
65072;DHT22;51663;52.310;17.016;2022-10-04T05:13:39;32.00;30.40
65072;DHT22;51663;52.310;17.016;2022-10-04T05:16:54;32.20;30.20
65072;DHT22;51663;52.310;17.016;2022-10-04T05:19:58;31.90;30.30
65072;DHT22;51663;52.310;17.016;2022-10-04T05:23:01;31.80;30.60
65072;DHT22;51663;52.310;17.016;2022-10-04T05:26:10;32.00;30.50
65072;DHT22;51663;52.310;17.016;2022-10-04T05:29:17;32.20;30.10
65072;DHT22;51663;52.310;17.016;2022-10-04T05:32:29;32.30;30.00
65072;DHT22;51663;52.310;17.016;2022-10-04T05:35:45;32.50;29.90
65072;DHT22;51663;52.310;17.016;2022-10-04T05:38:52;32.40;30.00
65072;DHT22;51663;52.310;17.016;2022-10-04T05:42:05;32.40;30.00
65072;DHT22;51663;52.310;17.016;2022-10-04T05:48:18;32.50;30.00
65072;DHT22;51663;52.310;17.016;2022-10-04T05:54:26;32.50;29.90
65072;DHT22;51663;52.310;17.016;2022-10-04T06:04:15;32.20;30.10
65072;DHT22;51663;52.310;17.016;2022-10-04T06:10:43;32.20;30.00
65072;DHT22;51663;52.310;17.016;2022-10-04T06:14:24;32.40;30.00
65072;DHT22;51663;52.310;17.016;2022-10-04T06:21:24;32.30;30.10
65072;DHT22;51663;52.310;17.016;2022-10-04T06:24:33;32.60;30.00
65072;DHT22;51663;52.310;17.016;2022-10-04T06:31:22;33.00;29.60
65072;DHT22;51663;52.310;17.016;2022-10-04T06:51:00;32.50;30.00
65072;DHT22;51663;52.310;17.016;2022-10-04T06:57:34;33.30;29.30
65072;DHT22;51663;52.310;17.016;2022-10-04T07:01:02;32.60;29.40
65072;DHT22;51663;52.310;17.016;2022-10-04T07:08:23;33.00;29.60
65072;DHT22;51663;52.310;17.016;2022-10-04T07:11:40;33.50;29.10
65072;DHT22;51663;52.310;17.016;2022-10-04T07:14:51;33.80;28.90
65072;DHT22;51663;52.310;17.016;2022-10-04T07:17:55;34.00;28.70
65072;DHT22;51663;52.310;17.016;2022-10-04T07:21:05;34.10;28.40
65072;DHT22;51663;52.310;17.016;2022-10-04T07:24:11;34.50;28.30
65072;DHT22;51663;52.310;17.016;2022-10-04T07:34:00;34.90;27.90
65072;DHT22;51663;52.310;17.016;2022-10-04T07:37:09;34.70;27.70
65072;DHT22;51663;52.310;17.016;2022-10-04T07:41:00;34.50;27.90
65072;DHT22;51663;52.310;17.016;2022-10-04T07:47:32;34.60;27.80
65072;DHT22;51663;52.310;17.016;2022-10-04T07:50:40;34.10;27.90
65072;DHT22;51663;52.310;17.016;2022-10-04T07:54:00;34.00;28.10
65072;DHT22;51663;52.310;17.016;2022-10-04T07:57:20;33.80;28.40
65072;DHT22;51663;52.310;17.016;2022-10-04T08:00:29;33.80;28.50
65072;DHT22;51663;52.310;17.016;2022-10-04T08:07:02;32.50;29.30
65072;DHT22;51663;52.310;17.016;2022-10-04T08:13:54;32.60;29.20
65072;DHT22;51663;52.310;17.016;2022-10-04T08:20:58;32.40;29.30
65072;DHT22;51663;52.310;17.016;2022-10-04T08:52:22;35.30;27.30
65072;DHT22;51663;52.310;17.016;2022-10-04T09:02:30;35.10;27.00
65072;DHT22;51663;52.310;17.016;2022-10-04T09:06:06;34.80;26.90
65072;DHT22;51663;52.310;17.016;2022-10-04T09:15:50;35.40;26.90
65072;DHT22;51663;52.310;17.016;2022-10-04T09:22:52;35.00;27.00
65072;DHT22;51663;52.310;17.016;2022-10-04T09:29:19;35.30;26.20
65072;DHT22;51663;52.310;17.016;2022-10-04T10:03:05;34.70;26.60
65072;DHT22;51663;52.310;17.016;2022-10-04T10:09:57;34.70;26.30
65072;DHT22;51663;52.310;17.016;2022-10-04T10:23:49;35.30;26.30
65072;DHT22;51663;52.310;17.016;2022-10-04T10:31:19;35.50;25.80
65072;DHT22;51663;52.310;17.016;2022-10-04T10:38:17;34.70;26.50
65072;DHT22;51663;52.310;17.016;2022-10-04T10:41:54;35.10;26.00
65072;DHT22;51663;52.310;17.016;2022-10-04T10:59:30;35.00;25.60
65072;DHT22;51663;52.310;17.016;2022-10-04T11:20:01;35.00;25.10
65072;DHT22;51663;52.310;17.016;2022-10-04T11:30:23;34.40;25.40
65072;DHT22;51663;52.310;17.016;2022-10-04T11:37:28;34.80;25.60
65072;DHT22;51663;52.310;17.016;2022-10-04T11:40:53;34.80;25.60
65072;DHT22;51663;52.310;17.016;2022-10-04T11:44:29;35.20;25.50
65072;DHT22;51663;52.310;17.016;2022-10-04T11:47:54;35.10;25.10
65072;DHT22;51663;52.310;17.016;2022-10-04T11:58:30;34.30;25.60
65072;DHT22;51663;52.310;17.016;2022-10-04T12:09:07;35.00;25.30
65072;DHT22;51663;52.310;17.016;2022-10-04T12:26:08;36.20;24.40
65072;DHT22;51663;52.310;17.016;2022-10-04T12:50:23;36.00;24.00
65072;DHT22;51663;52.310;17.016;2022-10-04T12:53:52;36.10;23.90
65072;DHT22;51663;52.310;17.016;2022-10-04T13:03:58;35.60;23.80
65072;DHT22;51663;52.310;17.016;2022-10-04T13:21:02;35.10;24.50
65072;DHT22;51663;52.310;17.016;2022-10-04T13:24:36;35.40;24.00
65072;DHT22;51663;52.310;17.016;2022-10-04T13:31:29;35.90;23.90
65072;DHT22;51663;52.310;17.016;2022-10-04T13:41:44;36.40;23.50
65072;DHT22;51663;52.310;17.016;2022-10-04T13:48:45;36.60;22.90
65072;DHT22;51663;52.310;17.016;2022-10-04T13:52:26;36.50;22.90
65072;DHT22;51663;52.310;17.016;2022-10-04T13:56:29;36.00;23.40
65072;DHT22;51663;52.310;17.016;2022-10-04T14:24:41;33.90;25.60
65072;DHT22;51663;52.310;17.016;2022-10-04T14:34:55;33.70;25.60
65072;DHT22;51663;52.310;17.016;2022-10-04T14:56:21;33.60;25.70
65072;DHT22;51663;52.310;17.016;2022-10-04T15:03:18;34.10;25.60
65072;DHT22;51663;52.310;17.016;2022-10-04T15:06:43;34.20;25.30
65072;DHT22;51663;52.310;17.016;2022-10-04T15:13:34;34.50;25.40
65072;DHT22;51663;52.310;17.016;2022-10-04T15:17:07;34.60;25.20
65072;DHT22;51663;52.310;17.016;2022-10-04T15:23:54;35.00;25.10
65072;DHT22;51663;52.310;17.016;2022-10-04T15:31:00;35.00;25.60
65072;DHT22;51663;52.310;17.016;2022-10-04T15:37:39;35.10;25.10
65072;DHT22;51663;52.310;17.016;2022-10-04T15:41:25;35.10;25.30
65072;DHT22;51663;52.310;17.016;2022-10-04T15:48:04;35.00;25.50
65072;DHT22;51663;52.310;17.016;2022-10-04T16:01:45;34.60;25.90
65072;DHT22;51663;52.310;17.016;2022-10-04T16:12:03;34.20;26.20
65072;DHT22;51663;52.310;17.016;2022-10-04T16:15:12;34.10;26.20
65072;DHT22;51663;52.310;17.016;2022-10-04T16:24:52;33.80;26.70
65072;DHT22;51663;52.310;17.016;2022-10-04T16:31:20;33.70;27.20
65072;DHT22;51663;52.310;17.016;2022-10-04T16:37:53;33.40;27.40
65072;DHT22;51663;52.310;17.016;2022-10-04T16:41:07;33.40;27.10
65072;DHT22;51663;52.310;17.016;2022-10-04T16:47:38;33.40;27.50
65072;DHT22;51663;52.310;17.016;2022-10-04T16:51:18;33.40;27.10
65072;DHT22;51663;52.310;17.016;2022-10-04T16:55:08;33.20;27.40
65072;DHT22;51663;52.310;17.016;2022-10-04T17:01:57;33.00;27.30
65072;DHT22;51663;52.310;17.016;2022-10-04T17:05:17;33.00;27.40
65072;DHT22;51663;52.310;17.016;2022-10-04T17:08:24;32.90;27.50
65072;DHT22;51663;52.310;17.016;2022-10-04T17:11:39;32.90;27.60
65072;DHT22;51663;52.310;17.016;2022-10-04T17:14:54;32.70;27.70
65072;DHT22;51663;52.310;17.016;2022-10-04T17:31:43;32.00;28.00
65072;DHT22;51663;52.310;17.016;2022-10-04T17:49:17;32.70;27.50
65072;DHT22;51663;52.310;17.016;2022-10-04T17:52:44;32.80;27.40
65072;DHT22;51663;52.310;17.016;2022-10-04T17:56:06;32.90;27.10
65072;DHT22;51663;52.310;17.016;2022-10-04T17:59:14;32.90;27.10
65072;DHT22;51663;52.310;17.016;2022-10-04T18:05:42;32.90;27.00
65072;DHT22;51663;52.310;17.016;2022-10-04T18:08:54;32.90;26.80
65072;DHT22;51663;52.310;17.016;2022-10-04T18:12:04;32.90;26.90
65072;DHT22;51663;52.310;17.016;2022-10-04T18:15:36;32.80;26.70
65072;DHT22;51663;52.310;17.016;2022-10-04T18:18:43;32.80;26.40
65072;DHT22;51663;52.310;17.016;2022-10-04T18:21:51;32.90;26.60
65072;DHT22;51663;52.310;17.016;2022-10-04T18:25:19;32.80;26.90
65072;DHT22;51663;52.310;17.016;2022-10-04T18:28:25;32.80;27.00
65072;DHT22;51663;52.310;17.016;2022-10-04T18:31:39;32.90;27.00
65072;DHT22;51663;52.310;17.016;2022-10-04T18:34:43;32.90;26.90
65072;DHT22;51663;52.310;17.016;2022-10-04T18:38:23;32.90;26.80
65072;DHT22;51663;52.310;17.016;2022-10-04T18:41:36;32.90;26.90
65072;DHT22;51663;52.310;17.016;2022-10-04T18:48:00;33.00;26.90
65072;DHT22;51663;52.310;17.016;2022-10-04T18:51:28;33.00;27.10
65072;DHT22;51663;52.310;17.016;2022-10-04T18:54:45;33.00;27.10
65072;DHT22;51663;52.310;17.016;2022-10-04T18:58:11;33.10;27.20
65072;DHT22;51663;52.310;17.016;2022-10-04T19:18:45;32.80;27.30
65072;DHT22;51663;52.310;17.016;2022-10-04T19:22:11;32.80;27.10
65072;DHT22;51663;52.310;17.016;2022-10-04T19:28:42;32.60;27.10
65072;DHT22;51663;52.310;17.016;2022-10-04T19:32:10;32.60;27.10
65072;DHT22;51663;52.310;17.016;2022-10-04T19:46:42;32.40;27.10
65072;DHT22;51663;52.310;17.016;2022-10-04T19:53:21;32.60;27.20
65072;DHT22;51663;52.310;17.016;2022-10-04T19:56:30;32.60;27.00
65072;DHT22;51663;52.310;17.016;2022-10-04T19:59:39;32.70;27.00
65072;DHT22;51663;52.310;17.016;2022-10-04T20:02:44;32.70;26.80
65072;DHT22;51663;52.310;17.016;2022-10-04T20:05:56;32.70;27.00
65072;DHT22;51663;52.310;17.016;2022-10-04T20:12:38;32.60;27.10
65072;DHT22;51663;52.310;17.016;2022-10-04T20:15:51;32.60;26.60
65072;DHT22;51663;52.310;17.016;2022-10-04T20:18:58;32.60;27.40
65072;DHT22;51663;52.310;17.016;2022-10-04T20:25:08;32.60;26.50
65072;DHT22;51663;52.310;17.016;2022-10-04T20:34:50;32.60;26.80
65072;DHT22;51663;52.310;17.016;2022-10-04T20:44:54;32.60;26.80
65072;DHT22;51663;52.310;17.016;2022-10-04T20:47:57;32.50;26.60
65072;DHT22;51663;52.310;17.016;2022-10-04T20:51:07;32.50;26.20
65072;DHT22;51663;52.310;17.016;2022-10-04T20:54:18;32.50;26.20
65072;DHT22;51663;52.310;17.016;2022-10-04T20:57:20;32.30;26.50
65072;DHT22;51663;52.310;17.016;2022-10-04T21:00:27;32.20;26.50
65072;DHT22;51663;52.310;17.016;2022-10-04T21:03:29;32.20;26.60
65072;DHT22;51663;52.310;17.016;2022-10-04T21:06:52;32.20;26.50
65072;DHT22;51663;52.310;17.016;2022-10-04T21:10:15;32.20;25.90
65072;DHT22;51663;52.310;17.016;2022-10-04T21:13:38;32.30;26.40
65072;DHT22;51663;52.310;17.016;2022-10-04T21:16:45;32.20;26.10
65072;DHT22;51663;52.310;17.016;2022-10-04T21:19:48;32.20;26.20
65072;DHT22;51663;52.310;17.016;2022-10-04T21:23:07;32.20;26.10
65072;DHT22;51663;52.310;17.016;2022-10-04T21:26:23;32.10;26.10
65072;DHT22;51663;52.310;17.016;2022-10-04T21:29:25;32.10;25.90
65072;DHT22;51663;52.310;17.016;2022-10-04T21:32:35;32.10;26.00
65072;DHT22;51663;52.310;17.016;2022-10-04T21:35:37;32.10;26.00
65072;DHT22;51663;52.310;17.016;2022-10-04T21:38:39;32.10;26.10
65072;DHT22;51663;52.310;17.016;2022-10-04T21:41:41;32.10;26.10
65072;DHT22;51663;52.310;17.016;2022-10-04T21:44:44;32.00;26.00
65072;DHT22;51663;52.310;17.016;2022-10-04T21:47:45;32.10;26.20
65072;DHT22;51663;52.310;17.016;2022-10-04T21:50:49;32.00;26.20
65072;DHT22;51663;52.310;17.016;2022-10-04T21:53:52;32.10;26.00
65072;DHT22;51663;52.310;17.016;2022-10-04T21:56:54;32.00;26.20
65072;DHT22;51663;52.310;17.016;2022-10-04T21:59:56;32.00;25.80
65072;DHT22;51663;52.310;17.016;2022-10-04T22:02:58;32.00;25.90
65072;DHT22;51663;52.310;17.016;2022-10-04T22:06:00;32.00;25.90
65072;DHT22;51663;52.310;17.016;2022-10-04T22:09:02;32.00;26.00
65072;DHT22;51663;52.310;17.016;2022-10-04T22:12:05;32.00;25.70
65072;DHT22;51663;52.310;17.016;2022-10-04T22:15:07;32.00;25.90
65072;DHT22;51663;52.310;17.016;2022-10-04T22:18:09;32.00;25.80
65072;DHT22;51663;52.310;17.016;2022-10-04T22:21:12;32.00;25.80
65072;DHT22;51663;52.310;17.016;2022-10-04T22:24:18;32.00;26.00
65072;DHT22;51663;52.310;17.016;2022-10-04T22:27:20;32.00;26.00
65072;DHT22;51663;52.310;17.016;2022-10-04T22:30:26;32.00;26.20
65072;DHT22;51663;52.310;17.016;2022-10-04T22:33:38;32.00;26.40
65072;DHT22;51663;52.310;17.016;2022-10-04T22:36:41;32.00;26.20
65072;DHT22;51663;52.310;17.016;2022-10-04T22:39:43;32.00;26.10
65072;DHT22;51663;52.310;17.016;2022-10-04T22:42:49;32.00;26.10
65072;DHT22;51663;52.310;17.016;2022-10-04T22:45:51;32.00;26.20
65072;DHT22;51663;52.310;17.016;2022-10-04T22:48:55;32.00;26.20
65072;DHT22;51663;52.310;17.016;2022-10-04T22:51:58;31.90;26.30
65072;DHT22;51663;52.310;17.016;2022-10-04T22:55:01;31.80;26.50
65072;DHT22;51663;52.310;17.016;2022-10-04T22:58:04;31.70;26.70
65072;DHT22;51663;52.310;17.016;2022-10-04T23:01:14;31.60;26.70
65072;DHT22;51663;52.310;17.016;2022-10-04T23:04:22;31.60;26.90
65072;DHT22;51663;52.310;17.016;2022-10-04T23:07:25;31.60;27.00
65072;DHT22;51663;52.310;17.016;2022-10-04T23:10:27;31.60;26.90
65072;DHT22;51663;52.310;17.016;2022-10-04T23:13:31;31.50;26.80
65072;DHT22;51663;52.310;17.016;2022-10-04T23:16:35;31.50;26.90
65072;DHT22;51663;52.310;17.016;2022-10-04T23:19:37;31.50;26.70
65072;DHT22;51663;52.310;17.016;2022-10-04T23:22:50;31.50;27.20
65072;DHT22;51663;52.310;17.016;2022-10-04T23:25:54;31.50;26.80
65072;DHT22;51663;52.310;17.016;2022-10-04T23:28:57;31.50;27.40
65072;DHT22;51663;52.310;17.016;2022-10-04T23:32:12;31.60;27.40
65072;DHT22;51663;52.310;17.016;2022-10-04T23:35:21;31.60;27.40
65072;DHT22;51663;52.310;17.016;2022-10-04T23:38:24;31.60;28.10
65072;DHT22;51663;52.310;17.016;2022-10-04T23:41:27;31.50;29.00
65072;DHT22;51663;52.310;17.016;2022-10-04T23:44:33;31.40;29.00
65072;DHT22;51663;52.310;17.016;2022-10-04T23:47:36;31.60;28.70
65072;DHT22;51663;52.310;17.016;2022-10-04T23:50:39;31.70;28.30
65072;DHT22;51663;52.310;17.016;2022-10-04T23:53:43;31.70;28.10
65072;DHT22;51663;52.310;17.016;2022-10-04T23:56:45;31.70;28.30
65072;DHT22;51663;52.310;17.016;2022-10-04T23:59:49;31.70;28.40
